Swan Valley, Idaho
Current Conditions -  °F | °C
As of 2:56 PM on Wednesday 26 Nov 2014 (Local Time) from KDIJ Reporting Station
Scattered Clouds Scattered Clouds  
Wind Chill: 31°   Ceiling: Unl
Heat Index: 38°   Visibility: 10mi
Dew Point: 32°   Wind: 10mph
Humidity: 79%   Direction: 190°S
Pressure: 30.3"   Gusts: NA
Location:  43.46°N, 111.34°W
Report Text: KDIJ 262156Z AUTO 19009KT 10SM SCT075 03/00 A3030 RMK AO2 T00330000 SLP242
Loading
Personal Weather Stations






























Interactive Weather Map New forecast layout! Learn more

10-Day Weather Forecast

Advertisements
Track Severe Weather on mobile